Time;durP1;ratioP1;P1;durP2;ratioP2;P2;SDS_P1;SDS_P2;PMS_P1;PMS_P2;Temp;Humidity;BMP_temperature;BMP_pressure;BME280_temperature;BME280_humidity;BME280_pressure;Samples;Min_cycle;Max_cycle;Signal;HPM_P1;HPM_P2
2021/10/24 00:00:32;;;;;;;17.58;13.48;;;10.10;99.90;;;;;;5047207;28;25099;-70
2021/10/24 00:02:58;;;;;;;21.60;14.93;;;10.00;99.90;;;;;;5035802;28;25062;-71
2021/10/24 00:05:23;;;;;;;18.50;13.82;;;10.00;99.90;;;;;;5047488;28;25154;-68
2021/10/24 00:07:49;;;;;;;20.67;14.55;;;10.10;99.90;;;;;;5049096;28;25066;-68
2021/10/24 00:10:14;;;;;;;21.80;14.55;;;10.10;99.90;;;;;;5042019;28;25071;-71
2021/10/24 00:12:40;;;;;;;21.73;15.25;;;10.00;99.90;;;;;;5047833;28;25073;-70
2021/10/24 00:15:07;;;;;;;20.67;14.07;;;10.00;99.90;;;;;;5040850;28;25137;-70
2021/10/24 00:17:32;;;;;;;21.42;13.90;;;10.00;99.90;;;;;;5044185;28;25071;-72
2021/10/24 00:19:58;;;;;;;21.45;14.25;;;10.00;99.90;;;;;;5027029;28;25099;-70
2021/10/24 00:22:24;;;;;;;21.58;14.50;;;10.00;99.90;;;;;;5038679;28;25069;-70
2021/10/24 00:24:49;;;;;;;24.67;14.10;;;10.00;99.90;;;;;;5046401;28;25070;-71
2021/10/24 00:27:15;;;;;;;21.90;15.35;;;9.90;99.90;;;;;;5035129;28;25123;-73
2021/10/24 00:29:40;;;;;;;20.30;15.15;;;9.90;99.90;;;;;;5045826;28;25245;-69
2021/10/24 00:32:06;;;;;;;20.33;15.45;;;9.80;99.90;;;;;;5026388;28;25081;-69
2021/10/24 00:34:32;;;;;;;25.08;16.23;;;9.70;99.90;;;;;;5045672;28;25076;-71
2021/10/24 00:36:58;;;;;;;21.92;15.48;;;9.60;99.90;;;;;;5046867;28;25103;-69
2021/10/24 00:39:24;;;;;;;21.58;16.50;;;9.60;99.90;;;;;;5045679;28;25137;-68
2021/10/24 00:41:50;;;;;;;23.02;16.15;;;9.40;99.90;;;;;;5054511;28;25085;-71
2021/10/24 00:44:23;;;;;;;20.75;16.80;;;9.30;99.90;;;;;;5065866;28;25054;-72
2021/10/24 00:46:49;;;;;;;21.45;16.63;;;9.30;99.90;;;;;;5041622;28;25052;-71
2021/10/24 00:49:15;;;;;;;21.35;16.75;;;9.30;99.90;;;;;;5034844;28;25085;-71
2021/10/24 00:51:41;;;;;;;21.33;17.38;;;9.30;99.90;;;;;;5041502;28;25158;-71
2021/10/24 00:54:07;;;;;;;25.65;17.27;;;9.20;99.90;;;;;;5048331;28;25090;-70
2021/10/24 00:56:33;;;;;;;22.67;17.15;;;9.00;99.90;;;;;;5049371;28;25128;-70
2021/10/24 00:59:00;;;;;;;25.77;17.08;;;9.00;99.90;;;;;;5026517;28;25080;-70
2021/10/24 01:01:25;;;;;;;27.90;19.33;;;9.00;99.90;;;;;;5027639;28;25103;-70
2021/10/24 01:03:51;;;;;;;32.53;18.70;;;8.80;99.90;;;;;;5052498;28;25096;-70
2021/10/24 01:06:17;;;;;;;23.92;17.13;;;8.80;99.90;;;;;;5046383;28;25097;-71
2021/10/24 01:08:43;;;;;;;23.63;18.05;;;8.80;99.90;;;;;;5046225;28;25062;-72
2021/10/24 01:11:09;;;;;;;21.75;17.77;;;8.80;99.90;;;;;;5043857;28;25055;-71
2021/10/24 01:13:35;;;;;;;24.88;18.73;;;8.80;99.90;;;;;;5045006;28;25162;-71
2021/10/24 01:16:17;;;;;;;24.58;18.10;;;8.80;99.90;;;;;;5045500;28;25073;-68
2021/10/24 01:18:44;;;;;;;23.80;17.60;;;8.70;99.90;;;;;;5055102;28;25133;-71
2021/10/24 01:21:10;;;;;;;25.58;18.38;;;8.60;99.90;;;;;;5038627;28;25145;-72
2021/10/24 01:23:36;;;;;;;22.90;17.13;;;8.60;99.90;;;;;;5046542;28;25094;-74
2021/10/24 01:26:03;;;;;;;25.05;19.17;;;8.60;99.90;;;;;;5045701;28;25103;-71
2021/10/24 01:28:29;;;;;;;26.08;19.20;;;8.50;99.90;;;;;;5052985;28;25081;-68
2021/10/24 01:30:55;;;;;;;29.55;18.92;;;8.40;99.90;;;;;;5042540;28;25059;-69
2021/10/24 01:33:22;;;;;;;24.90;17.77;;;8.30;99.90;;;;;;5048721;28;25075;-67
2021/10/24 01:35:55;;;;;;;28.77;19.17;;;8.40;99.90;;;;;;5050546;28;25062;-71
2021/10/24 01:38:25;;;;;;;27.83;19.05;;;8.50;99.90;;;;;;5050144;28;25060;-68
2021/10/24 01:40:52;;;;;;;25.40;19.58;;;8.40;99.90;;;;;;5049759;28;25085;-69
2021/10/24 01:43:22;;;;;;;24.15;17.90;;;8.30;99.90;;;;;;5048079;28;25126;-70
2021/10/24 01:45:47;;;;;;;24.52;18.40;;;8.30;99.90;;;;;;5039794;28;25100;-71
2021/10/24 01:48:15;;;;;;;23.35;20.08;;;8.20;99.90;;;;;;5049046;28;25073;-70
2021/10/24 01:50:41;;;;;;;22.85;17.67;;;8.10;99.90;;;;;;5037253;28;25063;-70
2021/10/24 01:53:07;;;;;;;22.85;19.02;;;8.10;99.90;;;;;;5035965;28;25068;-71
2021/10/24 01:55:33;;;;;;;27.08;19.50;;;8.10;99.90;;;;;;5059328;28;25051;-70
2021/10/24 01:57:58;;;;;;;22.92;17.92;;;8.10;99.90;;;;;;5056001;28;25062;-70
2021/10/24 02:00:25;;;;;;;28.08;19.25;;;8.10;99.90;;;;;;5051495;28;25047;-70
2021/10/24 02:02:51;;;;;;;23.27;17.92;;;8.20;99.90;;;;;;5048775;28;25142;-70
2021/10/24 02:05:17;;;;;;;23.48;16.58;;;8.20;99.90;;;;;;5057478;28;25088;-68
2021/10/24 02:07:43;;;;;;;21.88;17.20;;;8.20;99.90;;;;;;5057603;28;25076;-69
2021/10/24 02:10:13;;;;;;;25.40;17.67;;;8.20;99.90;;;;;;5045775;28;25078;-70
2021/10/24 02:12:39;;;;;;;25.15;17.02;;;8.20;99.90;;;;;;5050495;28;25047;-69
2021/10/24 02:15:06;;;;;;;22.70;17.77;;;8.20;99.90;;;;;;5050207;28;25120;-70
2021/10/24 02:17:32;;;;;;;20.88;16.63;;;8.20;99.90;;;;;;5030604;28;25052;-70
2021/10/24 02:19:58;;;;;;;28.58;17.95;;;8.20;99.90;;;;;;5048977;28;25066;-69
2021/10/24 02:22:24;;;;;;;23.00;16.98;;;8.10;99.90;;;;;;5051005;28;25124;-70
2021/10/24 02:24:50;;;;;;;21.00;16.63;;;8.10;99.90;;;;;;5043479;28;25073;-69
2021/10/24 02:27:16;;;;;;;23.15;17.50;;;8.10;99.90;;;;;;5039907;28;25078;-71
2021/10/24 02:29:43;;;;;;;21.38;15.23;;;8.10;99.90;;;;;;5044400;28;25129;-70
2021/10/24 02:32:09;;;;;;;23.58;18.33;;;8.10;99.90;;;;;;5037140;28;25259;-70
2021/10/24 02:34:35;;;;;;;23.65;17.30;;;8.00;99.90;;;;;;5041405;28;25077;-68
2021/10/24 02:37:00;;;;;;;22.05;17.13;;;8.10;99.90;;;;;;5040627;28;25052;-73
2021/10/24 02:39:26;;;;;;;22.08;17.08;;;8.10;99.90;;;;;;5045387;28;25050;-70
2021/10/24 02:41:52;;;;;;;22.92;15.93;;;8.10;99.90;;;;;;5042719;28;25052;-70
2021/10/24 02:44:18;;;;;;;18.80;15.30;;;8.10;99.90;;;;;;5046164;28;25063;-70
2021/10/24 02:46:45;;;;;;;25.88;16.52;;;8.10;99.90;;;;;;5055575;28;25179;-70
2021/10/24 02:49:10;;;;;;;20.27;16.02;;;8.10;99.90;;;;;;5037621;28;25121;-69
2021/10/24 02:51:37;;;;;;;24.20;17.85;;;8.10;99.90;;;;;;5055631;28;25059;-69
2021/10/24 02:54:03;;;;;;;21.60;16.15;;;8.00;99.90;;;;;;5048929;28;25066;-69
2021/10/24 02:56:28;;;;;;;26.63;16.60;;;8.00;99.90;;;;;;5048676;28;25071;-70
2021/10/24 02:58:54;;;;;;;23.95;16.90;;;7.90;99.90;;;;;;5045758;28;25157;-70
2021/10/24 03:01:20;;;;;;;21.08;16.27;;;7.90;99.90;;;;;;5059679;28;25057;-70
2021/10/24 03:03:45;;;;;;;25.23;17.30;;;7.90;99.90;;;;;;5047975;28;25137;-67
2021/10/24 03:06:11;;;;;;;21.40;17.10;;;7.90;99.90;;;;;;5046108;28;25094;-70
2021/10/24 03:08:36;;;;;;;22.67;16.42;;;7.90;99.90;;;;;;5045566;28;25118;-70
2021/10/24 03:11:02;;;;;;;24.25;18.90;;;7.80;99.90;;;;;;5043468;28;25153;-73
2021/10/24 03:13:28;;;;;;;27.77;17.35;;;7.80;99.90;;;;;;5029586;28;25067;-70
2021/10/24 03:15:53;;;;;;;20.40;17.55;;;7.80;99.90;;;;;;5047811;28;25106;-70
2021/10/24 03:18:20;;;;;;;21.67;17.58;;;7.80;99.90;;;;;;5046279;28;25089;-70
2021/10/24 03:20:47;;;;;;;20.85;16.08;;;7.70;99.90;;;;;;5049285;28;25085;-75
2021/10/24 03:23:14;;;;;;;24.25;17.30;;;7.60;99.90;;;;;;5040865;28;25104;-67
2021/10/24 03:25:39;;;;;;;26.63;18.73;;;7.60;99.90;;;;;;5041655;28;25109;-68
2021/10/24 03:28:05;;;;;;;24.02;17.80;;;7.60;99.90;;;;;;5049150;28;25142;-68
2021/10/24 03:30:31;;;;;;;22.27;18.23;;;7.60;99.90;;;;;;5046601;28;25066;-70
2021/10/24 03:32:57;;;;;;;23.40;17.52;;;7.50;99.90;;;;;;5048163;28;25079;-70
2021/10/24 03:35:23;;;;;;;25.20;17.40;;;7.50;99.90;;;;;;5049185;28;25124;-70
2021/10/24 03:37:49;;;;;;;22.58;16.48;;;7.50;99.90;;;;;;5058667;28;25085;-70
2021/10/24 03:40:15;;;;;;;23.30;16.33;;;7.50;99.90;;;;;;5061594;28;25120;-70
2021/10/24 03:42:41;;;;;;;18.05;15.95;;;7.50;99.90;;;;;;5047730;28;25136;-72
2021/10/24 03:45:08;;;;;;;22.75;17.17;;;7.50;99.90;;;;;;5049454;28;25094;-69
2021/10/24 03:47:34;;;;;;;25.73;18.48;;;7.50;99.90;;;;;;5044861;28;25123;-70
2021/10/24 03:50:00;;;;;;;21.15;18.35;;;7.40;99.90;;;;;;5047735;28;25095;-69
2021/10/24 03:52:25;;;;;;;25.27;17.27;;;7.40;99.90;;;;;;5049905;28;25076;-70
2021/10/24 03:54:52;;;;;;;21.88;17.63;;;7.30;99.90;;;;;;5050385;28;25136;-69
2021/10/24 03:57:19;;;;;;;23.23;17.77;;;7.30;99.90;;;;;;5048201;28;25059;-70
2021/10/24 03:59:45;;;;;;;25.88;18.83;;;7.30;99.90;;;;;;5044305;28;25066;-69
2021/10/24 04:02:11;;;;;;;26.92;17.85;;;7.20;99.90;;;;;;5029043;28;25099;-68
2021/10/24 04:04:38;;;;;;;24.27;18.17;;;7.30;99.90;;;;;;5048289;28;25098;-69
2021/10/24 04:07:05;;;;;;;24.63;19.58;;;7.20;99.90;;;;;;5093790;22;25072;-72
2021/10/24 04:09:38;;;;;;;29.08;21.13;;;7.10;99.90;;;;;;5092790;28;25065;-72
2021/10/24 04:12:06;;;;;;;;;;;7.10;99.90;;;;;;5083339;28;25049;-72
2021/10/24 04:14:32;;;;;;;22.60;18.20;;;7.10;99.90;;;;;;5092805;28;24073;-73
2021/10/24 04:16:58;;;;;;;26.13;19.75;;;7.10;99.90;;;;;;5088900;28;25088;-73
2021/10/24 04:19:34;;;;;;;24.83;18.20;;;7.10;99.90;;;;;;5096116;28;25075;-73
2021/10/24 04:21:59;;;;;;;31.58;19.50;;;7.20;99.90;;;;;;5098895;28;25066;-74
2021/10/24 04:24:25;;;;;;;26.67;18.50;;;7.20;99.90;;;;;;5093934;28;25069;-74
2021/10/24 04:26:51;;;;;;;24.33;18.13;;;7.20;99.90;;;;;;5090096;28;25085;-74
2021/10/24 04:29:16;;;;;;;28.40;19.10;;;7.20;99.90;;;;;;5089742;28;25054;-73
2021/10/24 04:31:43;;;;;;;23.10;18.30;;;7.20;99.90;;;;;;5073247;28;25153;-74
2021/10/24 04:34:09;;;;;;;24.77;17.73;;;7.20;99.90;;;;;;5070151;28;25060;-74
2021/10/24 04:36:35;;;;;;;21.40;17.75;;;7.20;99.90;;;;;;5055120;28;25059;-74
2021/10/24 04:39:00;;;;;;;31.83;20.83;;;7.10;99.90;;;;;;5071022;28;25051;-74
2021/10/24 04:41:26;;;;;;;26.30;18.50;;;7.00;99.90;;;;;;5068983;28;25048;-74
2021/10/24 04:43:53;;;;;;;23.92;17.70;;;6.90;99.90;;;;;;5071928;28;25060;-74
2021/10/24 04:46:18;;;;;;;23.17;17.63;;;7.00;99.90;;;;;;5071711;28;25060;-72
2021/10/24 04:48:44;;;;;;;23.77;17.17;;;7.00;99.90;;;;;;5073859;28;25051;-72
2021/10/24 04:51:09;;;;;;;28.27;16.55;;;7.00;99.90;;;;;;5075314;28;25103;-72
2021/10/24 04:53:35;;;;;;;24.75;18.92;;;7.00;99.90;;;;;;5076167;28;25052;-72
2021/10/24 04:56:01;;;;;;;25.45;17.45;;;7.00;99.90;;;;;;5069946;28;25060;-75
2021/10/24 04:58:27;;;;;;;25.52;15.70;;;7.00;99.90;;;;;;5070281;28;25078;-74
2021/10/24 05:00:52;;;;;;;20.83;17.63;;;7.00;99.90;;;;;;5067652;28;25108;-74
2021/10/24 05:03:18;;;;;;;23.58;17.38;;;7.00;99.90;;;;;;5069635;28;25099;-73
2021/10/24 05:05:46;;;;;;;18.60;16.25;;;7.00;99.90;;;;;;5072628;28;25054;-73
2021/10/24 05:08:12;;;;;;;21.88;16.77;;;7.00;99.90;;;;;;5073026;28;25096;-73
2021/10/24 05:10:40;;;;;;;23.55;16.13;;;7.10;99.90;;;;;;5071403;28;25073;-74
2021/10/24 05:13:08;;;;;;;20.75;16.30;;;7.10;99.90;;;;;;5071533;28;25045;-74
2021/10/24 05:15:34;;;;;;;21.25;15.63;;;7.10;99.90;;;;;;5072792;28;25158;-72
2021/10/24 05:17:59;;;;;;;20.45;17.17;;;7.10;99.90;;;;;;5071649;28;25093;-72
2021/10/24 05:20:34;;;;;;;22.38;16.77;;;7.10;99.90;;;;;;5071504;28;25079;-74
2021/10/24 05:23:00;;;;;;;27.95;17.02;;;7.00;99.90;;;;;;5043640;28;25067;-74
2021/10/24 05:25:42;;;;;;;20.92;16.10;;;7.00;99.90;;;;;;5084215;28;25078;-74
2021/10/24 05:28:08;;;;;;;19.70;16.20;;;7.00;99.90;;;;;;5098473;28;25042;-72
2021/10/24 05:30:33;;;;;;;21.67;15.65;;;7.00;99.90;;;;;;5095574;28;25054;-73
2021/10/24 05:33:25;;;;;;;21.35;16.00;;;7.10;99.90;;;;;;5093635;28;25059;-73
2021/10/24 05:35:53;;;;;;;21.30;14.98;;;7.10;99.90;;;;;;5094729;28;25066;-73
2021/10/24 05:38:32;;;;;;;21.17;16.70;;;7.10;99.90;;;;;;5094335;28;25104;-74
2021/10/24 05:40:58;;;;;;;21.60;16.17;;;7.00;99.90;;;;;;5093471;28;25089;-73
2021/10/24 05:43:24;;;;;;;21.63;16.33;;;7.00;99.90;;;;;;5094664;28;25065;-74
2021/10/24 05:45:55;;;;;;;23.63;18.55;;;7.00;99.90;;;;;;5072512;28;25068;-73
2021/10/24 05:48:20;;;;;;;25.33;17.40;;;6.90;99.90;;;;;;5095102;28;25067;-73
2021/10/24 05:50:55;;;;;;;23.15;17.17;;;6.80;99.90;;;;;;5094934;28;25056;-73
2021/10/24 05:53:22;;;;;;;24.98;17.38;;;6.80;99.90;;;;;;5090534;28;25061;-74
2021/10/24 05:55:48;;;;;;;28.02;17.77;;;6.90;99.90;;;;;;5091866;28;25068;-74
2021/10/24 05:58:14;;;;;;;22.30;17.67;;;6.80;99.90;;;;;;5093128;28;25068;-73
2021/10/24 06:00:40;;;;;;;31.02;18.52;;;6.90;99.90;;;;;;5070204;28;25071;-73
2021/10/24 06:03:06;;;;;;;22.80;16.77;;;6.90;99.90;;;;;;5083679;28;25117;-72
2021/10/24 06:05:33;;;;;;;18.35;14.77;;;6.90;99.90;;;;;;5084680;28;25135;-73
2021/10/24 06:08:02;;;;;;;24.15;16.88;;;6.90;99.90;;;;;;5062675;28;25135;-72
2021/10/24 06:10:31;;;;;;;27.75;16.85;;;7.00;99.90;;;;;;5060520;28;25133;-73
2021/10/24 06:12:58;;;;;;;21.65;16.90;;;7.00;99.90;;;;;;5079428;28;25058;-73
2021/10/24 06:15:25;;;;;;;21.92;16.92;;;7.00;99.90;;;;;;5072290;28;25052;-74
2021/10/24 06:17:51;;;;;;;26.02;17.77;;;7.00;99.90;;;;;;5085011;28;25080;-73
2021/10/24 06:20:19;;;;;;;24.92;17.40;;;7.00;99.90;;;;;;5077436;28;25063;-75
2021/10/24 06:22:45;;;;;;;21.25;15.48;;;7.00;99.90;;;;;;5075088;28;25071;-74
2021/10/24 06:25:14;;;;;;;26.15;17.65;;;6.90;99.90;;;;;;5079553;28;25057;-73
2021/10/24 06:27:42;;;;;;;21.02;17.35;;;6.90;99.90;;;;;;5059624;28;25055;-73
2021/10/24 06:30:10;;;;;;;23.20;17.63;;;6.80;99.90;;;;;;5079772;28;25053;-75
2021/10/24 06:32:37;;;;;;;27.40;17.45;;;6.70;99.90;;;;;;5085390;28;25068;-74
2021/10/24 06:35:04;;;;;;;25.27;16.60;;;6.80;99.90;;;;;;5090881;28;25051;-73
2021/10/24 06:37:43;;;;;;;19.70;15.15;;;6.70;99.90;;;;;;5092118;28;25052;-74
2021/10/24 06:40:12;;;;;;;26.38;18.05;;;6.70;99.90;;;;;;5098875;28;25072;-73
2021/10/24 06:42:38;;;;;;;26.02;16.85;;;6.80;99.90;;;;;;5089927;28;25098;-73
2021/10/24 06:45:06;;;;;;;24.48;16.83;;;6.80;99.90;;;;;;5079092;28;25082;-73
2021/10/24 06:47:32;;;;;;;19.70;16.65;;;6.70;99.90;;;;;;5075518;28;25077;-73
2021/10/24 06:49:58;;;;;;;23.13;17.15;;;6.70;99.90;;;;;;5075383;28;25094;-73
2021/10/24 06:52:24;;;;;;;29.02;17.40;;;6.70;99.90;;;;;;5076504;28;25080;-74
2021/10/24 06:54:49;;;;;;;21.25;16.52;;;6.70;99.90;;;;;;5068968;28;25056;-74
2021/10/24 06:57:15;;;;;;;20.35;15.80;;;6.70;99.90;;;;;;5078399;28;25151;-74
2021/10/24 06:59:42;;;;;;;24.75;16.42;;;6.80;99.90;;;;;;5070317;28;25070;-75
2021/10/24 07:02:09;;;;;;;22.83;15.45;;;6.90;99.90;;;;;;5077518;28;25132;-74
2021/10/24 07:04:36;;;;;;;21.25;15.27;;;6.90;99.90;;;;;;5073825;28;25083;-74
2021/10/24 07:07:04;;;;;;;22.17;14.52;;;6.90;99.90;;;;;;5077607;28;25146;-73
2021/10/24 07:09:29;;;;;;;23.40;15.30;;;7.00;99.90;;;;;;5072756;28;25058;-71
2021/10/24 07:11:55;;;;;;;20.33;14.75;;;6.90;99.90;;;;;;5073865;28;25067;-73
2021/10/24 07:14:20;;;;;;;19.63;14.32;;;6.90;99.90;;;;;;5076559;28;25063;-75
2021/10/24 07:16:46;;;;;;;22.55;14.73;;;7.00;99.90;;;;;;5059263;28;25067;-73
2021/10/24 07:19:12;;;;;;;20.45;13.85;;;7.00;99.90;;;;;;5078640;28;25069;-74
2021/10/24 07:21:37;;;;;;;16.80;14.02;;;6.90;99.90;;;;;;5076658;28;25062;-74
2021/10/24 07:24:04;;;;;;;22.73;14.23;;;7.00;99.90;;;;;;5074459;28;25082;-73
2021/10/24 07:26:31;;;;;;;18.92;13.25;;;6.90;99.90;;;;;;5075564;28;25054;-73
2021/10/24 07:28:57;;;;;;;20.23;12.93;;;7.00;99.90;;;;;;5078881;28;25138;-74
2021/10/24 07:31:23;;;;;;;17.52;12.60;;;7.10;99.90;;;;;;5072231;28;25086;-74
2021/10/24 07:33:49;;;;;;;15.32;11.73;;;7.10;99.90;;;;;;5072066;28;25154;-74
2021/10/24 07:36:15;;;;;;;23.08;12.07;;;7.10;99.90;;;;;;5070242;28;25131;-74
2021/10/24 07:38:40;;;;;;;16.35;11.07;;;7.20;99.90;;;;;;5073282;28;25063;-74
2021/10/24 07:41:06;;;;;;;17.65;11.90;;;7.30;99.90;;;;;;5055745;28;25137;-74
2021/10/24 07:43:32;;;;;;;20.05;11.88;;;7.40;99.90;;;;;;5071258;28;25102;-73
2021/10/24 07:45:58;;;;;;;21.05;12.10;;;7.40;99.90;;;;;;5056379;28;25060;-73
2021/10/24 07:48:24;;;;;;;15.15;11.13;;;7.40;99.90;;;;;;5073203;28;25070;-73
2021/10/24 07:50:50;;;;;;;14.82;10.32;;;7.50;99.90;;;;;;5072051;28;25058;-73
2021/10/24 07:53:17;;;;;;;15.30;10.45;;;7.50;99.90;;;;;;5075214;28;25076;-74
2021/10/24 07:55:43;;;;;;;15.75;10.02;;;7.60;99.90;;;;;;5072418;28;25081;-73
2021/10/24 07:58:10;;;;;;;15.02;9.98;;;7.60;99.90;;;;;;5067071;28;25070;-73
2021/10/24 08:00:36;;;;;;;13.02;9.57;;;7.60;99.90;;;;;;5073951;28;25061;-73
2021/10/24 08:03:07;;;;;;;15.98;9.95;;;7.70;99.90;;;;;;5071783;28;25093;-71
2021/10/24 08:05:33;;;;;;;16.35;9.73;;;7.80;99.90;;;;;;5072933;28;25074;-74
2021/10/24 08:08:00;;;;;;;15.90;9.93;;;8.00;99.90;;;;;;5074903;28;25103;-72
2021/10/24 08:10:26;;;;;;;12.95;8.75;;;8.00;99.90;;;;;;5077380;28;25071;-73
2021/10/24 08:12:52;;;;;;;12.23;8.15;;;8.10;99.90;;;;;;5072646;28;25082;-73
2021/10/24 08:15:19;;;;;;;14.30;8.25;;;8.20;99.90;;;;;;5071884;28;25092;-72
2021/10/24 08:17:47;;;;;;;14.32;8.20;;;8.20;99.90;;;;;;5072841;28;25076;-72
2021/10/24 08:20:14;;;;;;;12.90;7.50;;;8.20;99.90;;;;;;5075450;28;25115;-72
2021/10/24 08:22:41;;;;;;;10.55;7.47;;;8.30;99.90;;;;;;5076321;28;25093;-73
2021/10/24 08:25:07;;;;;;;13.93;7.93;;;8.40;99.90;;;;;;5069072;28;25071;-74
2021/10/24 08:27:33;;;;;;;13.50;8.35;;;8.40;99.90;;;;;;5072212;28;25082;-73
2021/10/24 08:30:00;;;;;;;12.23;8.63;;;8.40;99.90;;;;;;5072568;28;25053;-71
2021/10/24 08:32:26;;;;;;;10.73;7.85;;;8.40;99.90;;;;;;5076083;28;25089;-73
2021/10/24 08:34:52;;;;;;;13.32;7.55;;;8.50;99.90;;;;;;5072741;28;25060;-74
2021/10/24 08:37:19;;;;;;;12.10;8.00;;;8.60;99.90;;;;;;5069756;28;25076;-73
2021/10/24 08:39:52;;;;;;;12.90;7.53;;;8.60;99.90;;;;;;5076539;28;25128;-72
2021/10/24 08:42:27;;;;;;;11.68;7.45;;;8.80;99.90;;;;;;5074709;28;25075;-73
2021/10/24 08:44:57;;;;;;;11.10;7.00;;;9.20;99.90;;;;;;5072675;28;25073;-73
2021/10/24 08:47:27;;;;;;;15.90;7.85;;;9.40;99.90;;;;;;5066488;28;25085;-73
2021/10/24 08:49:54;;;;;;;11.80;7.53;;;9.60;99.90;;;;;;5050275;28;25082;-72
2021/10/24 08:52:23;;;;;;;13.70;7.28;;;9.50;99.90;;;;;;5071644;28;25071;-74
2021/10/24 08:54:50;;;;;;;16.60;8.65;;;9.30;99.90;;;;;;5074384;28;25062;-73
2021/10/24 08:57:27;;;;;;;11.10;7.20;;;9.20;99.90;;;;;;5071099;28;25057;-73
2021/10/24 08:59:59;;;;;;;13.50;7.55;;;9.10;99.90;;;;;;5077637;28;25068;-73
2021/10/24 09:02:55;;;;;;;15.13;8.20;;;9.10;99.90;;;;;;5085254;28;25054;-72
2021/10/24 09:05:40;;;;;;;14.75;8.13;;;9.20;99.90;;;;;;5077812;28;25091;-73
2021/10/24 09:08:07;;;;;;;14.15;7.57;;;9.20;99.90;;;;;;5063697;28;25054;-70
2021/10/24 09:10:38;;;;;;;15.18;8.05;;;9.10;99.90;;;;;;5069157;28;25058;-72
2021/10/24 09:13:08;;;;;;;13.25;7.85;;;9.20;99.90;;;;;;5074427;28;25088;-72
2021/10/24 09:15:54;;;;;;;11.95;7.88;;;9.20;99.90;;;;;;5048615;28;25065;-72
2021/10/24 09:18:45;;;;;;;12.50;7.95;;;9.30;99.90;;;;;;5075057;28;25098;-73
2021/10/24 09:21:17;;;;;;;14.45;7.78;;;9.40;99.90;;;;;;5071345;28;25121;-73
2021/10/24 09:23:50;;;;;;;12.10;7.57;;;9.50;99.90;;;;;;5062486;28;25168;-73
2021/10/24 09:26:27;;;;;;;10.45;7.70;;;9.50;99.90;;;;;;5069721;28;25073;-72
2021/10/24 09:29:04;;;;;;;13.35;7.95;;;9.60;99.90;;;;;;5072937;28;25082;-72
2021/10/24 09:31:32;;;;;;;10.85;7.60;;;9.50;99.90;;;;;;5054719;28;25062;-72
2021/10/24 09:34:22;;;;;;;13.40;7.68;;;9.50;99.90;;;;;;5074255;28;25058;-73
2021/10/24 09:36:58;;;;;;;14.13;7.90;;;9.50;99.90;;;;;;5054423;28;25063;-74
2021/10/24 09:39:34;;;;;;;14.02;8.35;;;9.60;99.90;;;;;;5068707;28;25131;-74
2021/10/24 09:42:18;;;;;;;17.00;8.35;;;9.70;99.90;;;;;;5072581;28;25069;-75
2021/10/24 09:45:15;;;;;;;11.57;7.15;;;9.70;99.90;;;;;;5072375;28;25154;-74
2021/10/24 09:47:40;;;;;;;11.65;7.38;;;9.80;99.90;;;;;;5072740;28;25084;-74
2021/10/24 09:50:09;;;;;;;11.68;7.55;;;9.90;99.90;;;;;;5074666;28;25079;-73
2021/10/24 09:52:36;;;;;;;11.30;8.73;;;10.00;99.90;;;;;;5076657;28;25054;-74
2021/10/24 09:55:15;;;;;;;15.23;7.18;;;10.00;99.90;;;;;;5052833;28;25049;-72
2021/10/24 09:57:42;;;;;;;12.18;7.35;;;10.10;99.90;;;;;;5076569;28;25067;-73
2021/10/24 10:00:08;;;;;;;14.40;7.00;;;10.20;99.90;;;;;;5075848;28;25055;-74
2021/10/24 10:02:34;;;;;;;8.98;6.85;;;10.30;99.90;;;;;;5055890;28;25118;-73
2021/10/24 10:05:00;;;;;;;10.95;7.32;;;10.80;99.90;;;;;;5076049;28;25177;-75
2021/10/24 10:07:27;;;;;;;11.25;7.45;;;11.00;99.90;;;;;;5073588;28;25105;-75
2021/10/24 10:09:54;;;;;;;12.20;7.22;;;11.00;99.90;;;;;;5072020;28;25059;-76
2021/10/24 10:12:21;;;;;;;12.32;7.60;;;11.00;99.90;;;;;;5075028;28;25073;-76
2021/10/24 10:14:53;;;;;;;14.23;7.05;;;11.30;99.90;;;;;;5075238;28;25072;-76
2021/10/24 10:17:24;;;;;;;12.35;6.88;;;11.50;99.90;;;;;;5078197;28;25066;-72
2021/10/24 10:19:52;;;;;;;11.40;7.38;;;11.50;99.90;;;;;;5079612;28;25049;-74
2021/10/24 10:22:32;;;;;;;16.45;7.85;;;11.30;99.90;;;;;;5082945;28;25069;-75
2021/10/24 10:25:07;;;;;;;10.65;7.57;;;11.30;99.90;;;;;;5074133;28;25068;-75
2021/10/24 10:27:35;;;;;;;10.38;7.47;;;11.40;99.90;;;;;;5076387;28;25147;-76
2021/10/24 10:30:07;;;;;;;11.35;7.55;;;11.50;99.90;;;;;;5075280;28;25152;-75
2021/10/24 10:32:53;;;;;;;10.80;7.13;;;11.60;99.90;;;;;;5070314;28;25067;-75
2021/10/24 10:35:22;;;;;;;9.50;6.57;;;11.50;99.90;;;;;;5063751;28;25161;-72
2021/10/24 10:37:56;;;;;;;12.75;7.43;;;11.50;99.90;;;;;;5076374;28;25141;-74
2021/10/24 10:40:30;;;;;;;9.88;6.65;;;11.50;99.90;;;;;;5074038;28;25077;-73
2021/10/24 10:43:14;;;;;;;11.32;7.28;;;11.60;99.90;;;;;;5072352;28;25113;-74
2021/10/24 10:45:45;;;;;;;12.35;7.15;;;11.50;99.90;;;;;;5075652;28;25152;-75
2021/10/24 10:48:39;;;;;;;11.93;7.13;;;11.50;99.90;;;;;;5077105;28;25178;-76
2021/10/24 10:51:37;;;;;;;12.50;6.60;;;11.70;99.90;;;;;;5080536;28;25105;-76
2021/10/24 10:54:05;;;;;;;10.93;6.50;;;11.90;99.90;;;;;;5027008;28;25075;-75
2021/10/24 10:56:34;;;;;;;11.00;7.20;;;12.10;99.90;;;;;;5074123;28;25065;-73
2021/10/24 10:59:04;;;;;;;11.07;6.95;;;12.20;99.90;;;;;;5075751;28;25071;-75
2021/10/24 11:01:35;;;;;;;14.68;7.45;;;12.40;99.90;;;;;;5074087;28;25063;-74
2021/10/24 11:04:07;;;;;;;13.02;6.85;;;12.40;99.90;;;;;;5075940;28;25083;-74
2021/10/24 11:06:38;;;;;;;11.05;6.82;;;12.50;99.90;;;;;;5075914;28;25084;-74
2021/10/24 11:09:12;;;;;;;11.55;6.80;;;12.70;99.90;;;;;;5068283;28;25058;-74
2021/10/24 11:11:37;;;;;;;10.50;6.53;;;13.00;99.90;;;;;;5065226;28;25067;-74
2021/10/24 11:14:15;;;;;;;9.35;5.78;;;13.20;99.90;;;;;;5075990;28;25054;-74
2021/10/24 11:16:52;;;;;;;9.85;6.30;;;13.60;99.90;;;;;;5069298;28;25122;-74
2021/10/24 11:19:38;;;;;;;9.35;6.28;;;14.00;99.90;;;;;;5057947;28;25078;-73
2021/10/24 11:22:14;;;;;;;13.73;6.97;;;14.30;99.90;;;;;;5071009;28;25047;-73
2021/10/24 11:24:52;;;;;;;7.28;5.80;;;14.40;99.90;;;;;;5080413;28;25080;-76
2021/10/24 11:27:38;;;;;;;7.82;5.85;;;14.60;99.90;;;;;;5079418;28;25087;-71
2021/10/24 11:30:06;;;;;;;7.68;5.45;;;15.20;99.90;;;;;;5071394;28;25070;-73
2021/10/24 11:32:36;;;;;;;9.50;5.85;;;15.40;99.90;;;;;;5046725;28;25093;-73
2021/10/24 11:35:14;;;;;;;12.77;5.78;;;15.30;99.90;;;;;;5057790;28;25077;-74
2021/10/24 11:37:45;;;;;;;7.05;5.90;;;15.60;99.90;;;;;;5066223;28;25063;-74
2021/10/24 11:40:20;;;;;;;9.85;6.25;;;15.80;99.90;;;;;;5083256;28;25058;-75
2021/10/24 11:43:08;;;;;;;6.63;5.60;;;15.60;99.90;;;;;;5097825;28;25067;-75
2021/10/24 11:45:50;;;;;;;7.82;5.60;;;15.60;99.90;;;;;;5093177;28;25058;-74
2021/10/24 11:48:30;;;;;;;8.93;4.72;;;15.70;99.90;;;;;;5078988;28;25075;-75
2021/10/24 11:51:00;;;;;;;10.52;6.53;;;16.00;99.90;;;;;;5079391;28;25076;-74
2021/10/24 11:53:45;;;;;;;8.70;5.40;;;16.20;99.90;;;;;;5061481;28;25071;-74
2021/10/24 11:59:13;;;;;;;10.40;6.10;;;16.50;99.90;;;;;;5072436;28;25074;-75
2021/10/24 12:01:39;;;;;;;9.63;5.55;;;16.50;99.90;;;;;;5072092;28;25125;-74
2021/10/24 12:04:14;;;;;;;9.98;6.15;;;16.40;99.90;;;;;;5073591;28;25058;-75
2021/10/24 12:06:48;;;;;;;7.07;5.65;;;16.00;99.90;;;;;;5065125;28;25065;-74
2021/10/24 12:09:31;;;;;;;10.25;5.35;;;16.10;99.90;;;;;;5073469;28;25137;-72
2021/10/24 12:12:26;;;;;;;8.45;5.35;;;16.60;99.90;;;;;;5041716;28;25057;-73
2021/10/24 12:15:16;;;;;;;8.68;5.53;;;16.70;99.90;;;;;;5056509;28;25080;-74
2021/10/24 12:17:44;;;;;;;8.30;4.90;;;16.50;99.90;;;;;;5067902;28;25050;-74
2021/10/24 12:20:26;;;;;;;7.32;4.78;;;16.20;99.90;;;;;;5068494;28;25134;-74
2021/10/24 12:22:58;;;;;;;8.50;5.55;;;16.10;99.90;;;;;;5064100;28;25057;-73
2021/10/24 12:25:48;;;;;;;9.65;5.57;;;16.60;99.90;;;;;;5073614;28;25079;-74
2021/10/24 12:28:27;;;;;;;11.40;5.00;;;16.80;99.90;;;;;;5070572;28;25130;-74
2021/10/24 12:31:16;;;;;;;8.15;5.10;;;16.60;99.90;;;;;;5074616;28;25217;-75
2021/10/24 12:33:43;;;;;;;8.85;5.38;;;16.90;99.90;;;;;;5073264;28;25053;-74
2021/10/24 12:36:12;;;;;;;8.60;4.70;;;16.60;99.90;;;;;;5072550;28;25095;-72
2021/10/24 12:38:48;;;;;;;6.57;4.78;;;16.50;99.90;;;;;;5055435;28;25067;-73
2021/10/24 12:41:17;;;;;;;6.68;4.75;;;16.90;99.90;;;;;;5069107;28;25069;-74
2021/10/24 12:43:50;;;;;;;9.73;4.70;;;16.30;99.90;;;;;;5071752;28;25058;-73
2021/10/24 12:46:27;;;;;;;10.32;5.72;;;15.80;99.90;;;;;;5072176;28;25053;-72
2021/10/24 12:48:57;;;;;;;8.82;5.15;;;15.40;99.90;;;;;;5075327;28;25045;-72
2021/10/24 12:51:26;;;;;;;9.00;4.70;;;15.50;99.90;;;;;;5051738;28;25069;-73